sensor_id;sensor_type;location;lat;lon;timestamp;P1;durP1;ratioP1;P2;durP2;ratioP2
10056;SDS011;5068;51.286;7.518;2023-02-21T00:01:49;14.55;;;9.18;;
10056;SDS011;5068;51.286;7.518;2023-02-21T00:03:40;12.43;;;7.57;;
10056;SDS011;5068;51.286;7.518;2023-02-21T00:05:31;15.77;;;9.52;;
10056;SDS011;5068;51.286;7.518;2023-02-21T00:07:22;13.50;;;8.55;;
10056;SDS011;5068;51.286;7.518;2023-02-21T00:09:13;14.95;;;8.15;;
10056;SDS011;5068;51.286;7.518;2023-02-21T00:11:04;14.63;;;8.88;;
10056;SDS011;5068;51.286;7.518;2023-02-21T00:12:55;15.20;;;9.60;;
10056;SDS011;5068;51.286;7.518;2023-02-21T00:14:46;13.93;;;9.23;;
10056;SDS011;5068;51.286;7.518;2023-02-21T00:16:39;13.75;;;8.90;;
10056;SDS011;5068;51.286;7.518;2023-02-21T00:18:32;15.90;;;10.00;;
10056;SDS011;5068;51.286;7.518;2023-02-21T00:20:23;14.70;;;8.57;;
10056;SDS011;5068;51.286;7.518;2023-02-21T00:22:14;14.57;;;8.73;;
10056;SDS011;5068;51.286;7.518;2023-02-21T00:24:06;12.68;;;9.02;;
10056;SDS011;5068;51.286;7.518;2023-02-21T00:25:57;15.20;;;9.23;;
10056;SDS011;5068;51.286;7.518;2023-02-21T00:27:48;14.52;;;8.85;;
10056;SDS011;5068;51.286;7.518;2023-02-21T00:29:39;14.65;;;9.48;;
10056;SDS011;5068;51.286;7.518;2023-02-21T00:31:30;14.60;;;9.02;;
10056;SDS011;5068;51.286;7.518;2023-02-21T00:33:22;14.38;;;8.52;;
10056;SDS011;5068;51.286;7.518;2023-02-21T00:35:12;14.50;;;8.65;;
10056;SDS011;5068;51.286;7.518;2023-02-21T00:37:03;14.25;;;8.65;;
10056;SDS011;5068;51.286;7.518;2023-02-21T00:38:54;12.80;;;7.90;;
10056;SDS011;5068;51.286;7.518;2023-02-21T00:40:46;12.63;;;8.10;;
10056;SDS011;5068;51.286;7.518;2023-02-21T00:42:37;13.77;;;8.43;;
10056;SDS011;5068;51.286;7.518;2023-02-21T00:44:28;13.77;;;8.20;;
10056;SDS011;5068;51.286;7.518;2023-02-21T00:46:19;13.02;;;8.35;;
10056;SDS011;5068;51.286;7.518;2023-02-21T00:48:10;13.18;;;8.52;;
10056;SDS011;5068;51.286;7.518;2023-02-21T00:50:02;11.70;;;8.30;;
10056;SDS011;5068;51.286;7.518;2023-02-21T00:51:54;13.88;;;7.80;;
10056;SDS011;5068;51.286;7.518;2023-02-21T00:53:45;13.05;;;7.40;;
10056;SDS011;5068;51.286;7.518;2023-02-21T00:55:36;11.45;;;7.85;;
10056;SDS011;5068;51.286;7.518;2023-02-21T00:57:27;12.35;;;7.63;;
10056;SDS011;5068;51.286;7.518;2023-02-21T00:59:18;13.82;;;8.27;;
10056;SDS011;5068;51.286;7.518;2023-02-21T01:01:08;12.18;;;7.88;;
10056;SDS011;5068;51.286;7.518;2023-02-21T01:03:00;12.90;;;7.63;;
10056;SDS011;5068;51.286;7.518;2023-02-21T01:04:51;12.27;;;8.32;;
10056;SDS011;5068;51.286;7.518;2023-02-21T01:06:43;12.45;;;7.22;;
10056;SDS011;5068;51.286;7.518;2023-02-21T01:08:34;14.02;;;8.23;;
10056;SDS011;5068;51.286;7.518;2023-02-21T01:10:25;13.70;;;8.25;;
10056;SDS011;5068;51.286;7.518;2023-02-21T01:12:16;14.35;;;8.75;;
10056;SDS011;5068;51.286;7.518;2023-02-21T01:14:07;13.25;;;8.10;;
10056;SDS011;5068;51.286;7.518;2023-02-21T01:15:58;13.82;;;8.68;;
10056;SDS011;5068;51.286;7.518;2023-02-21T01:17:50;13.23;;;8.15;;
10056;SDS011;5068;51.286;7.518;2023-02-21T01:19:40;16.42;;;8.63;;
10056;SDS011;5068;51.286;7.518;2023-02-21T01:21:31;14.27;;;9.02;;
10056;SDS011;5068;51.286;7.518;2023-02-21T01:23:24;14.25;;;8.50;;
10056;SDS011;5068;51.286;7.518;2023-02-21T01:27:05;11.82;;;7.53;;
10056;SDS011;5068;51.286;7.518;2023-02-21T01:28:56;13.55;;;7.93;;
10056;SDS011;5068;51.286;7.518;2023-02-21T01:30:47;16.10;;;9.10;;
10056;SDS011;5068;51.286;7.518;2023-02-21T01:32:38;11.88;;;7.90;;
10056;SDS011;5068;51.286;7.518;2023-02-21T01:34:30;12.43;;;7.75;;
10056;SDS011;5068;51.286;7.518;2023-02-21T01:36:20;14.52;;;8.70;;
10056;SDS011;5068;51.286;7.518;2023-02-21T01:38:11;12.60;;;7.85;;
10056;SDS011;5068;51.286;7.518;2023-02-21T01:40:04;13.88;;;8.48;;
10056;SDS011;5068;51.286;7.518;2023-02-21T01:41:56;13.82;;;8.50;;
10056;SDS011;5068;51.286;7.518;2023-02-21T01:44:00;14.45;;;8.80;;
10056;SDS011;5068;51.286;7.518;2023-02-21T01:45:53;13.77;;;8.05;;
10056;SDS011;5068;51.286;7.518;2023-02-21T01:47:47;13.57;;;8.52;;
10056;SDS011;5068;51.286;7.518;2023-02-21T01:49:40;13.63;;;8.27;;
10056;SDS011;5068;51.286;7.518;2023-02-21T01:51:32;14.18;;;8.90;;
10056;SDS011;5068;51.286;7.518;2023-02-21T01:53:27;13.20;;;8.68;;
10056;SDS011;5068;51.286;7.518;2023-02-21T01:55:22;14.18;;;8.88;;
10056;SDS011;5068;51.286;7.518;2023-02-21T01:57:13;14.57;;;8.68;;
10056;SDS011;5068;51.286;7.518;2023-02-21T01:59:04;14.15;;;8.88;;
10056;SDS011;5068;51.286;7.518;2023-02-21T02:00:55;14.07;;;8.90;;
10056;SDS011;5068;51.286;7.518;2023-02-21T02:02:49;13.30;;;8.95;;
10056;SDS011;5068;51.286;7.518;2023-02-21T02:06:37;13.43;;;8.35;;
10056;SDS011;5068;51.286;7.518;2023-02-21T02:08:29;13.38;;;8.38;;
10056;SDS011;5068;51.286;7.518;2023-02-21T02:10:24;13.43;;;8.27;;
10056;SDS011;5068;51.286;7.518;2023-02-21T02:12:23;13.20;;;8.15;;
10056;SDS011;5068;51.286;7.518;2023-02-21T02:14:35;12.05;;;7.55;;
10056;SDS011;5068;51.286;7.518;2023-02-21T02:22:38;11.80;;;7.50;;
10056;SDS011;5068;51.286;7.518;2023-02-21T02:24:43;11.82;;;7.88;;
10056;SDS011;5068;51.286;7.518;2023-02-21T02:29:09;13.68;;;9.45;;
10056;SDS011;5068;51.286;7.518;2023-02-21T02:31:16;13.68;;;8.95;;
10056;SDS011;5068;51.286;7.518;2023-02-21T02:33:21;14.80;;;8.77;;
10056;SDS011;5068;51.286;7.518;2023-02-21T02:35:33;14.95;;;8.75;;
10056;SDS011;5068;51.286;7.518;2023-02-21T02:37:14;13.50;;;8.07;;
10056;SDS011;5068;51.286;7.518;2023-02-21T02:38:58;13.40;;;8.80;;
10056;SDS011;5068;51.286;7.518;2023-02-21T02:40:42;13.77;;;8.15;;
10056;SDS011;5068;51.286;7.518;2023-02-21T02:42:32;15.13;;;9.07;;
10056;SDS011;5068;51.286;7.518;2023-02-21T02:44:20;13.35;;;8.40;;
10056;SDS011;5068;51.286;7.518;2023-02-21T02:46:03;13.20;;;8.43;;
10056;SDS011;5068;51.286;7.518;2023-02-21T02:47:43;15.27;;;9.13;;
10056;SDS011;5068;51.286;7.518;2023-02-21T02:49:22;15.40;;;8.88;;
10056;SDS011;5068;51.286;7.518;2023-02-21T02:51:04;14.43;;;8.77;;
10056;SDS011;5068;51.286;7.518;2023-02-21T02:52:48;14.48;;;8.50;;
10056;SDS011;5068;51.286;7.518;2023-02-21T02:54:24;15.52;;;8.05;;
10056;SDS011;5068;51.286;7.518;2023-02-21T02:55:57;15.48;;;9.25;;
10056;SDS011;5068;51.286;7.518;2023-02-21T02:57:35;14.63;;;8.73;;
10056;SDS011;5068;51.286;7.518;2023-02-21T02:59:12;14.73;;;8.88;;
10056;SDS011;5068;51.286;7.518;2023-02-21T03:00:55;14.57;;;8.93;;
10056;SDS011;5068;51.286;7.518;2023-02-21T03:02:48;14.57;;;9.02;;
10056;SDS011;5068;51.286;7.518;2023-02-21T03:04:43;15.93;;;9.13;;
10056;SDS011;5068;51.286;7.518;2023-02-21T03:06:46;15.35;;;8.90;;
10056;SDS011;5068;51.286;7.518;2023-02-21T03:08:32;16.23;;;9.93;;
10056;SDS011;5068;51.286;7.518;2023-02-21T03:10:16;14.23;;;8.63;;
10056;SDS011;5068;51.286;7.518;2023-02-21T03:11:59;16.40;;;9.75;;
10056;SDS011;5068;51.286;7.518;2023-02-21T03:13:41;17.77;;;9.40;;
10056;SDS011;5068;51.286;7.518;2023-02-21T03:15:24;17.88;;;9.90;;
10056;SDS011;5068;51.286;7.518;2023-02-21T03:17:05;17.02;;;10.23;;
10056;SDS011;5068;51.286;7.518;2023-02-21T03:18:45;16.38;;;9.18;;
10056;SDS011;5068;51.286;7.518;2023-02-21T03:20:23;18.25;;;10.20;;
10056;SDS011;5068;51.286;7.518;2023-02-21T03:22:00;16.88;;;9.77;;
10056;SDS011;5068;51.286;7.518;2023-02-21T03:23:38;19.20;;;10.85;;
10056;SDS011;5068;51.286;7.518;2023-02-21T03:25:15;15.98;;;9.10;;
10056;SDS011;5068;51.286;7.518;2023-02-21T03:26:51;15.98;;;9.23;;
10056;SDS011;5068;51.286;7.518;2023-02-21T03:28:49;15.82;;;9.20;;
10056;SDS011;5068;51.286;7.518;2023-02-21T03:30:24;16.80;;;9.35;;
10056;SDS011;5068;51.286;7.518;2023-02-21T03:31:59;17.30;;;10.10;;
10056;SDS011;5068;51.286;7.518;2023-02-21T03:33:41;16.50;;;9.82;;
10056;SDS011;5068;51.286;7.518;2023-02-21T03:35:15;18.58;;;9.55;;
10056;SDS011;5068;51.286;7.518;2023-02-21T03:36:50;15.15;;;9.10;;
10056;SDS011;5068;51.286;7.518;2023-02-21T03:38:24;15.88;;;9.75;;
10056;SDS011;5068;51.286;7.518;2023-02-21T03:40:00;16.65;;;9.65;;
10056;SDS011;5068;51.286;7.518;2023-02-21T03:41:37;16.85;;;9.50;;
10056;SDS011;5068;51.286;7.518;2023-02-21T03:43:11;18.10;;;9.98;;
10056;SDS011;5068;51.286;7.518;2023-02-21T03:44:55;18.02;;;9.77;;
10056;SDS011;5068;51.286;7.518;2023-02-21T03:46:28;17.73;;;9.77;;
10056;SDS011;5068;51.286;7.518;2023-02-21T03:48:00;17.85;;;9.85;;
10056;SDS011;5068;51.286;7.518;2023-02-21T03:49:36;16.02;;;9.55;;
10056;SDS011;5068;51.286;7.518;2023-02-21T03:51:10;18.42;;;9.48;;
10056;SDS011;5068;51.286;7.518;2023-02-21T03:52:44;17.00;;;9.98;;
10056;SDS011;5068;51.286;7.518;2023-02-21T03:54:19;19.88;;;11.27;;
10056;SDS011;5068;51.286;7.518;2023-02-21T03:55:55;18.65;;;10.45;;
10056;SDS011;5068;51.286;7.518;2023-02-21T03:57:36;16.00;;;9.77;;
10056;SDS011;5068;51.286;7.518;2023-02-21T03:59:10;17.08;;;9.48;;
10056;SDS011;5068;51.286;7.518;2023-02-21T04:00:42;18.38;;;9.93;;
10056;SDS011;5068;51.286;7.518;2023-02-21T04:02:15;16.80;;;9.73;;
10056;SDS011;5068;51.286;7.518;2023-02-21T04:03:49;17.88;;;10.18;;
10056;SDS011;5068;51.286;7.518;2023-02-21T04:05:23;16.95;;;10.20;;
10056;SDS011;5068;51.286;7.518;2023-02-21T04:06:57;17.17;;;10.02;;
10056;SDS011;5068;51.286;7.518;2023-02-21T04:08:30;19.45;;;10.32;;
10056;SDS011;5068;51.286;7.518;2023-02-21T04:10:04;18.00;;;10.32;;
10056;SDS011;5068;51.286;7.518;2023-02-21T04:11:45;17.42;;;9.45;;
10056;SDS011;5068;51.286;7.518;2023-02-21T04:13:19;17.42;;;9.75;;
10056;SDS011;5068;51.286;7.518;2023-02-21T04:14:55;15.43;;;9.55;;
10056;SDS011;5068;51.286;7.518;2023-02-21T04:16:29;18.23;;;10.20;;
10056;SDS011;5068;51.286;7.518;2023-02-21T04:18:02;16.92;;;9.50;;
10056;SDS011;5068;51.286;7.518;2023-02-21T04:19:35;20.65;;;10.85;;
10056;SDS011;5068;51.286;7.518;2023-02-21T04:21:09;17.90;;;10.48;;
10056;SDS011;5068;51.286;7.518;2023-02-21T04:22:43;19.65;;;10.43;;
10056;SDS011;5068;51.286;7.518;2023-02-21T04:24:29;19.75;;;10.82;;
10056;SDS011;5068;51.286;7.518;2023-02-21T04:26:04;17.42;;;10.18;;
10056;SDS011;5068;51.286;7.518;2023-02-21T04:27:49;17.98;;;10.45;;
10056;SDS011;5068;51.286;7.518;2023-02-21T04:29:23;16.67;;;10.38;;
10056;SDS011;5068;51.286;7.518;2023-02-21T04:30:56;17.30;;;10.32;;
10056;SDS011;5068;51.286;7.518;2023-02-21T04:32:29;17.52;;;10.40;;
10056;SDS011;5068;51.286;7.518;2023-02-21T04:34:08;18.92;;;10.50;;
10056;SDS011;5068;51.286;7.518;2023-02-21T04:35:45;19.42;;;10.70;;
10056;SDS011;5068;51.286;7.518;2023-02-21T04:37:38;17.73;;;10.18;;
10056;SDS011;5068;51.286;7.518;2023-02-21T04:39:12;18.75;;;10.82;;
10056;SDS011;5068;51.286;7.518;2023-02-21T04:40:45;19.48;;;11.18;;
10056;SDS011;5068;51.286;7.518;2023-02-21T04:42:19;19.38;;;11.07;;
10056;SDS011;5068;51.286;7.518;2023-02-21T04:43:53;18.42;;;10.73;;
10056;SDS011;5068;51.286;7.518;2023-02-21T04:45:27;19.42;;;11.50;;
10056;SDS011;5068;51.286;7.518;2023-02-21T04:46:59;18.40;;;10.52;;
10056;SDS011;5068;51.286;7.518;2023-02-21T04:48:32;18.92;;;10.88;;
10056;SDS011;5068;51.286;7.518;2023-02-21T04:50:06;21.65;;;11.95;;
10056;SDS011;5068;51.286;7.518;2023-02-21T04:51:40;19.08;;;10.95;;
10056;SDS011;5068;51.286;7.518;2023-02-21T04:53:14;19.38;;;11.13;;
10056;SDS011;5068;51.286;7.518;2023-02-21T04:54:47;19.38;;;11.15;;
10056;SDS011;5068;51.286;7.518;2023-02-21T04:56:21;18.40;;;10.48;;
10056;SDS011;5068;51.286;7.518;2023-02-21T04:57:59;20.65;;;12.13;;
10056;SDS011;5068;51.286;7.518;2023-02-21T04:59:32;21.40;;;11.95;;
10056;SDS011;5068;51.286;7.518;2023-02-21T05:01:05;20.85;;;11.35;;
10056;SDS011;5068;51.286;7.518;2023-02-21T05:02:41;19.30;;;10.75;;
10056;SDS011;5068;51.286;7.518;2023-02-21T05:04:14;17.75;;;10.52;;
10056;SDS011;5068;51.286;7.518;2023-02-21T05:05:47;19.63;;;10.82;;
10056;SDS011;5068;51.286;7.518;2023-02-21T05:07:21;20.30;;;10.82;;
10056;SDS011;5068;51.286;7.518;2023-02-21T05:08:53;20.85;;;11.13;;
10056;SDS011;5068;51.286;7.518;2023-02-21T05:10:27;21.92;;;11.25;;
10056;SDS011;5068;51.286;7.518;2023-02-21T05:12:15;20.10;;;11.75;;
10056;SDS011;5068;51.286;7.518;2023-02-21T05:13:50;20.00;;;11.25;;
10056;SDS011;5068;51.286;7.518;2023-02-21T05:15:23;22.88;;;12.10;;
10056;SDS011;5068;51.286;7.518;2023-02-21T05:16:56;20.02;;;11.43;;
10056;SDS011;5068;51.286;7.518;2023-02-21T05:18:30;23.83;;;12.32;;
10056;SDS011;5068;51.286;7.518;2023-02-21T05:20:05;20.08;;;11.27;;
10056;SDS011;5068;51.286;7.518;2023-02-21T05:21:41;21.42;;;12.02;;
10056;SDS011;5068;51.286;7.518;2023-02-21T05:23:15;19.60;;;11.38;;
10056;SDS011;5068;51.286;7.518;2023-02-21T05:24:49;20.65;;;12.00;;
10056;SDS011;5068;51.286;7.518;2023-02-21T05:26:23;19.35;;;11.93;;
10056;SDS011;5068;51.286;7.518;2023-02-21T05:28:00;21.08;;;12.25;;
10056;SDS011;5068;51.286;7.518;2023-02-21T05:29:34;21.10;;;11.95;;
10056;SDS011;5068;51.286;7.518;2023-02-21T05:31:06;20.20;;;12.40;;
10056;SDS011;5068;51.286;7.518;2023-02-21T05:32:40;21.73;;;12.38;;
10056;SDS011;5068;51.286;7.518;2023-02-21T05:34:14;20.45;;;11.65;;
10056;SDS011;5068;51.286;7.518;2023-02-21T05:35:50;19.05;;;11.55;;
10056;SDS011;5068;51.286;7.518;2023-02-21T05:37:23;20.77;;;12.02;;
10056;SDS011;5068;51.286;7.518;2023-02-21T05:38:56;22.52;;;13.18;;
10056;SDS011;5068;51.286;7.518;2023-02-21T05:40:28;21.10;;;11.63;;
10056;SDS011;5068;51.286;7.518;2023-02-21T05:42:02;24.00;;;12.32;;
10056;SDS011;5068;51.286;7.518;2023-02-21T05:43:34;21.63;;;12.30;;
10056;SDS011;5068;51.286;7.518;2023-02-21T05:45:09;19.83;;;12.18;;
10056;SDS011;5068;51.286;7.518;2023-02-21T05:46:43;21.55;;;12.20;;
10056;SDS011;5068;51.286;7.518;2023-02-21T05:48:16;21.27;;;11.02;;
10056;SDS011;5068;51.286;7.518;2023-02-21T05:49:49;21.42;;;11.65;;
10056;SDS011;5068;51.286;7.518;2023-02-21T05:51:22;21.20;;;11.80;;
10056;SDS011;5068;51.286;7.518;2023-02-21T05:52:58;22.63;;;12.25;;
10056;SDS011;5068;51.286;7.518;2023-02-21T05:54:32;23.10;;;11.82;;
10056;SDS011;5068;51.286;7.518;2023-02-21T05:56:06;22.20;;;11.80;;
10056;SDS011;5068;51.286;7.518;2023-02-21T05:59:14;20.60;;;10.90;;
10056;SDS011;5068;51.286;7.518;2023-02-21T06:00:51;24.20;;;12.02;;
10056;SDS011;5068;51.286;7.518;2023-02-21T06:02:23;22.92;;;12.98;;
10056;SDS011;5068;51.286;7.518;2023-02-21T06:03:56;21.35;;;12.02;;
10056;SDS011;5068;51.286;7.518;2023-02-21T06:05:29;22.67;;;11.93;;
10056;SDS011;5068;51.286;7.518;2023-02-21T06:07:02;21.75;;;12.68;;
10056;SDS011;5068;51.286;7.518;2023-02-21T06:08:43;25.17;;;12.35;;
10056;SDS011;5068;51.286;7.518;2023-02-21T06:10:18;24.55;;;12.98;;
10056;SDS011;5068;51.286;7.518;2023-02-21T06:11:54;23.77;;;12.43;;
10056;SDS011;5068;51.286;7.518;2023-02-21T06:13:30;22.83;;;13.13;;
10056;SDS011;5068;51.286;7.518;2023-02-21T06:15:04;22.00;;;12.60;;
10056;SDS011;5068;51.286;7.518;2023-02-21T06:16:40;23.17;;;13.45;;
10056;SDS011;5068;51.286;7.518;2023-02-21T06:18:14;24.15;;;13.38;;
10056;SDS011;5068;51.286;7.518;2023-02-21T06:19:48;23.75;;;12.85;;
10056;SDS011;5068;51.286;7.518;2023-02-21T06:21:21;24.70;;;13.00;;
10056;SDS011;5068;51.286;7.518;2023-02-21T06:22:55;25.67;;;13.18;;
10056;SDS011;5068;51.286;7.518;2023-02-21T06:24:28;25.60;;;13.27;;
10056;SDS011;5068;51.286;7.518;2023-02-21T06:26:01;23.25;;;13.43;;
10056;SDS011;5068;51.286;7.518;2023-02-21T06:27:35;23.05;;;12.98;;
10056;SDS011;5068;51.286;7.518;2023-02-21T06:29:08;26.83;;;14.20;;
10056;SDS011;5068;51.286;7.518;2023-02-21T06:30:43;24.30;;;13.15;;
10056;SDS011;5068;51.286;7.518;2023-02-21T06:32:18;23.45;;;13.07;;
10056;SDS011;5068;51.286;7.518;2023-02-21T06:33:51;26.67;;;14.13;;
10056;SDS011;5068;51.286;7.518;2023-02-21T06:35:24;25.85;;;13.93;;
10056;SDS011;5068;51.286;7.518;2023-02-21T06:36:58;25.63;;;13.93;;
10056;SDS011;5068;51.286;7.518;2023-02-21T06:38:31;25.90;;;13.27;;
10056;SDS011;5068;51.286;7.518;2023-02-21T06:40:04;27.17;;;14.30;;
10056;SDS011;5068;51.286;7.518;2023-02-21T06:41:38;26.75;;;13.30;;
10056;SDS011;5068;51.286;7.518;2023-02-21T06:43:11;26.50;;;13.50;;
10056;SDS011;5068;51.286;7.518;2023-02-21T06:44:46;26.35;;;13.63;;
10056;SDS011;5068;51.286;7.518;2023-02-21T06:46:22;26.85;;;14.80;;
10056;SDS011;5068;51.286;7.518;2023-02-21T06:47:59;24.90;;;13.88;;
10056;SDS011;5068;51.286;7.518;2023-02-21T06:49:32;24.77;;;13.82;;
10056;SDS011;5068;51.286;7.518;2023-02-21T06:51:06;26.85;;;13.85;;
10056;SDS011;5068;51.286;7.518;2023-02-21T06:52:41;24.80;;;13.65;;
10056;SDS011;5068;51.286;7.518;2023-02-21T06:54:15;27.23;;;14.43;;
10056;SDS011;5068;51.286;7.518;2023-02-21T06:55:48;28.45;;;14.75;;
10056;SDS011;5068;51.286;7.518;2023-02-21T06:57:21;26.23;;;13.52;;
10056;SDS011;5068;51.286;7.518;2023-02-21T06:58:54;26.30;;;13.57;;
10056;SDS011;5068;51.286;7.518;2023-02-21T07:00:28;28.90;;;15.57;;
10056;SDS011;5068;51.286;7.518;2023-02-21T07:02:01;28.13;;;14.50;;
10056;SDS011;5068;51.286;7.518;2023-02-21T07:03:38;27.58;;;14.20;;
10056;SDS011;5068;51.286;7.518;2023-02-21T07:05:14;28.95;;;14.18;;
10056;SDS011;5068;51.286;7.518;2023-02-21T07:06:47;29.48;;;15.38;;
10056;SDS011;5068;51.286;7.518;2023-02-21T07:08:21;29.40;;;14.70;;
10056;SDS011;5068;51.286;7.518;2023-02-21T07:11:29;24.80;;;13.57;;
10056;SDS011;5068;51.286;7.518;2023-02-21T07:13:04;25.33;;;13.27;;
10056;SDS011;5068;51.286;7.518;2023-02-21T07:14:37;25.65;;;13.25;;
10056;SDS011;5068;51.286;7.518;2023-02-21T07:16:11;27.23;;;13.15;;
10056;SDS011;5068;51.286;7.518;2023-02-21T07:17:44;26.70;;;14.20;;
10056;SDS011;5068;51.286;7.518;2023-02-21T07:19:19;27.33;;;13.82;;
10056;SDS011;5068;51.286;7.518;2023-02-21T07:20:52;28.38;;;14.07;;
10056;SDS011;5068;51.286;7.518;2023-02-21T07:22:25;30.08;;;14.38;;
10056;SDS011;5068;51.286;7.518;2023-02-21T07:23:58;30.17;;;15.05;;
10056;SDS011;5068;51.286;7.518;2023-02-21T07:25:32;32.22;;;15.65;;
10056;SDS011;5068;51.286;7.518;2023-02-21T07:27:05;30.83;;;15.63;;
10056;SDS011;5068;51.286;7.518;2023-02-21T07:28:38;31.33;;;15.48;;
10056;SDS011;5068;51.286;7.518;2023-02-21T07:30:12;29.17;;;15.43;;
10056;SDS011;5068;51.286;7.518;2023-02-21T07:31:46;30.60;;;15.70;;
10056;SDS011;5068;51.286;7.518;2023-02-21T07:33:19;31.58;;;15.60;;
10056;SDS011;5068;51.286;7.518;2023-02-21T07:34:54;31.80;;;14.50;;
10056;SDS011;5068;51.286;7.518;2023-02-21T07:36:27;30.20;;;15.55;;
10056;SDS011;5068;51.286;7.518;2023-02-21T07:38:00;28.15;;;14.90;;
10056;SDS011;5068;51.286;7.518;2023-02-21T07:39:33;32.30;;;16.05;;
10056;SDS011;5068;51.286;7.518;2023-02-21T07:41:07;33.72;;;16.08;;
10056;SDS011;5068;51.286;7.518;2023-02-21T07:42:40;34.10;;;15.90;;
10056;SDS011;5068;51.286;7.518;2023-02-21T07:44:14;30.45;;;15.82;;
10056;SDS011;5068;51.286;7.518;2023-02-21T07:45:47;33.67;;;16.10;;
10056;SDS011;5068;51.286;7.518;2023-02-21T07:47:21;36.13;;;17.83;;
10056;SDS011;5068;51.286;7.518;2023-02-21T07:48:54;34.45;;;16.08;;
10056;SDS011;5068;51.286;7.518;2023-02-21T07:50:29;33.50;;;16.35;;
10056;SDS011;5068;51.286;7.518;2023-02-21T07:52:02;34.15;;;16.98;;
10056;SDS011;5068;51.286;7.518;2023-02-21T07:53:36;35.75;;;16.83;;
10056;SDS011;5068;51.286;7.518;2023-02-21T07:55:09;33.50;;;16.30;;
10056;SDS011;5068;51.286;7.518;2023-02-21T07:56:43;32.03;;;16.15;;
10056;SDS011;5068;51.286;7.518;2023-02-21T07:58:18;38.30;;;16.98;;
10056;SDS011;5068;51.286;7.518;2023-02-21T07:59:52;36.17;;;16.33;;
10056;SDS011;5068;51.286;7.518;2023-02-21T08:01:25;36.03;;;16.75;;
10056;SDS011;5068;51.286;7.518;2023-02-21T08:02:59;36.47;;;16.75;;
10056;SDS011;5068;51.286;7.518;2023-02-21T08:04:32;36.30;;;16.08;;
10056;SDS011;5068;51.286;7.518;2023-02-21T08:06:06;33.83;;;16.88;;
10056;SDS011;5068;51.286;7.518;2023-02-21T08:07:41;33.10;;;15.88;;
10056;SDS011;5068;51.286;7.518;2023-02-21T08:09:15;35.15;;;16.92;;
10056;SDS011;5068;51.286;7.518;2023-02-21T08:10:49;30.98;;;16.08;;
10056;SDS011;5068;51.286;7.518;2023-02-21T08:12:22;35.65;;;17.02;;
10056;SDS011;5068;51.286;7.518;2023-02-21T08:13:55;33.95;;;15.98;;
10056;SDS011;5068;51.286;7.518;2023-02-21T08:15:28;38.25;;;16.70;;
10056;SDS011;5068;51.286;7.518;2023-02-21T08:17:01;33.90;;;17.38;;
10056;SDS011;5068;51.286;7.518;2023-02-21T08:18:35;35.58;;;16.45;;
10056;SDS011;5068;51.286;7.518;2023-02-21T08:20:08;36.67;;;17.00;;
10056;SDS011;5068;51.286;7.518;2023-02-21T08:21:44;34.78;;;16.35;;
10056;SDS011;5068;51.286;7.518;2023-02-21T08:23:18;37.63;;;17.23;;
10056;SDS011;5068;51.286;7.518;2023-02-21T08:24:51;34.28;;;16.90;;
10056;SDS011;5068;51.286;7.518;2023-02-21T08:26:24;34.45;;;16.25;;
10056;SDS011;5068;51.286;7.518;2023-02-21T08:27:58;38.42;;;16.42;;
10056;SDS011;5068;51.286;7.518;2023-02-21T08:29:31;31.63;;;15.50;;
10056;SDS011;5068;51.286;7.518;2023-02-21T08:31:04;35.10;;;16.42;;
10056;SDS011;5068;51.286;7.518;2023-02-21T08:32:38;33.78;;;15.93;;
10056;SDS011;5068;51.286;7.518;2023-02-21T08:34:12;33.45;;;15.48;;
10056;SDS011;5068;51.286;7.518;2023-02-21T08:35:46;31.75;;;16.10;;
10056;SDS011;5068;51.286;7.518;2023-02-21T08:37:20;37.00;;;17.25;;
10056;SDS011;5068;51.286;7.518;2023-02-21T08:38:54;31.83;;;15.88;;
10056;SDS011;5068;51.286;7.518;2023-02-21T08:40:27;34.45;;;16.90;;
10056;SDS011;5068;51.286;7.518;2023-02-21T08:42:02;35.60;;;17.95;;
10056;SDS011;5068;51.286;7.518;2023-02-21T08:43:35;32.47;;;15.70;;
10056;SDS011;5068;51.286;7.518;2023-02-21T08:45:10;34.25;;;16.70;;
10056;SDS011;5068;51.286;7.518;2023-02-21T08:46:48;32.28;;;15.88;;
10056;SDS011;5068;51.286;7.518;2023-02-21T08:48:22;32.67;;;15.65;;
10056;SDS011;5068;51.286;7.518;2023-02-21T08:49:55;33.30;;;15.43;;
10056;SDS011;5068;51.286;7.518;2023-02-21T08:51:29;33.28;;;15.65;;
10056;SDS011;5068;51.286;7.518;2023-02-21T08:53:05;31.65;;;15.50;;
10056;SDS011;5068;51.286;7.518;2023-02-21T08:54:39;31.85;;;16.15;;
10056;SDS011;5068;51.286;7.518;2023-02-21T08:56:12;32.00;;;14.60;;
10056;SDS011;5068;51.286;7.518;2023-02-21T08:57:51;30.88;;;14.63;;
10056;SDS011;5068;51.286;7.518;2023-02-21T08:59:26;31.33;;;15.55;;
10056;SDS011;5068;51.286;7.518;2023-02-21T09:01:04;34.47;;;16.23;;
10056;SDS011;5068;51.286;7.518;2023-02-21T09:02:37;35.58;;;15.23;;
10056;SDS011;5068;51.286;7.518;2023-02-21T09:04:11;31.55;;;14.95;;
10056;SDS011;5068;51.286;7.518;2023-02-21T09:05:44;30.65;;;14.73;;
10056;SDS011;5068;51.286;7.518;2023-02-21T09:07:18;33.63;;;14.38;;
10056;SDS011;5068;51.286;7.518;2023-02-21T09:08:54;31.52;;;14.95;;
10056;SDS011;5068;51.286;7.518;2023-02-21T09:10:29;31.65;;;15.38;;
10056;SDS011;5068;51.286;7.518;2023-02-21T09:12:04;30.98;;;15.68;;
10056;SDS011;5068;51.286;7.518;2023-02-21T09:13:38;31.80;;;15.55;;
10056;SDS011;5068;51.286;7.518;2023-02-21T09:15:13;30.85;;;15.20;;
10056;SDS011;5068;51.286;7.518;2023-02-21T09:16:47;29.92;;;14.07;;
10056;SDS011;5068;51.286;7.518;2023-02-21T09:18:21;32.13;;;15.18;;
10056;SDS011;5068;51.286;7.518;2023-02-21T09:19:54;32.13;;;15.02;;
10056;SDS011;5068;51.286;7.518;2023-02-21T09:21:27;32.28;;;15.73;;
10056;SDS011;5068;51.286;7.518;2023-02-21T09:23:01;31.63;;;15.55;;
10056;SDS011;5068;51.286;7.518;2023-02-21T09:24:35;33.10;;;14.48;;
10056;SDS011;5068;51.286;7.518;2023-02-21T09:26:09;33.63;;;15.60;;
10056;SDS011;5068;51.286;7.518;2023-02-21T09:27:42;39.20;;;17.10;;
10056;SDS011;5068;51.286;7.518;2023-02-21T09:29:17;35.85;;;15.93;;
10056;SDS011;5068;51.286;7.518;2023-02-21T09:30:50;34.95;;;15.02;;
10056;SDS011;5068;51.286;7.518;2023-02-21T09:32:23;35.00;;;15.70;;
10056;SDS011;5068;51.286;7.518;2023-02-21T09:33:59;37.85;;;16.20;;
10056;SDS011;5068;51.286;7.518;2023-02-21T09:35:32;35.05;;;16.13;;
10056;SDS011;5068;51.286;7.518;2023-02-21T09:37:05;36.05;;;16.40;;
10056;SDS011;5068;51.286;7.518;2023-02-21T09:38:39;39.08;;;16.85;;
10056;SDS011;5068;51.286;7.518;2023-02-21T09:40:17;38.40;;;16.45;;
10056;SDS011;5068;51.286;7.518;2023-02-21T09:42:03;34.60;;;16.17;;
10056;SDS011;5068;51.286;7.518;2023-02-21T09:43:37;34.90;;;15.13;;
10056;SDS011;5068;51.286;7.518;2023-02-21T09:45:14;34.90;;;15.52;;
10056;SDS011;5068;51.286;7.518;2023-02-21T09:46:51;34.75;;;14.73;;
10056;SDS011;5068;51.286;7.518;2023-02-21T09:48:28;33.03;;;15.07;;
10056;SDS011;5068;51.286;7.518;2023-02-21T09:50:04;32.63;;;14.52;;
10056;SDS011;5068;51.286;7.518;2023-02-21T09:51:44;33.63;;;15.18;;
10056;SDS011;5068;51.286;7.518;2023-02-21T09:53:19;32.28;;;14.93;;
10056;SDS011;5068;51.286;7.518;2023-02-21T09:54:59;32.35;;;14.95;;
10056;SDS011;5068;51.286;7.518;2023-02-21T09:56:40;32.63;;;14.32;;
10056;SDS011;5068;51.286;7.518;2023-02-21T09:59:49;27.80;;;12.23;;
10056;SDS011;5068;51.286;7.518;2023-02-21T10:01:24;27.50;;;14.07;;
10056;SDS011;5068;51.286;7.518;2023-02-21T10:03:21;30.00;;;13.00;;
10056;SDS011;5068;51.286;7.518;2023-02-21T10:05:15;31.50;;;14.05;;
10056;SDS011;5068;51.286;7.518;2023-02-21T10:07:01;29.23;;;13.23;;
10056;SDS011;5068;51.286;7.518;2023-02-21T10:08:43;30.55;;;13.93;;
10056;SDS011;5068;51.286;7.518;2023-02-21T10:10:26;31.10;;;14.40;;